createdAt,value
2023-04-10T00:01:27.899Z,4.97
2023-04-10T00:03:57.810Z,4.96
2023-04-10T00:06:27.953Z,4.92
2023-04-10T00:08:55.694Z,4.86
2023-04-10T00:11:23.385Z,4.87
2023-04-10T00:13:51.254Z,4.86
2023-04-10T00:16:19.158Z,4.80
2023-04-10T00:18:48.477Z,4.69
2023-04-10T00:21:17.334Z,4.68
2023-04-10T00:23:45.408Z,4.73
2023-04-10T00:26:13.156Z,4.65
2023-04-10T00:28:42.441Z,4.60
2023-04-10T00:31:10.688Z,4.63
2023-04-10T00:33:38.476Z,4.51
2023-04-10T00:36:08.240Z,4.49
2023-04-10T00:38:37.512Z,4.43
2023-04-10T00:41:06.355Z,4.44
2023-04-10T00:43:34.145Z,4.37
2023-04-10T00:46:02.111Z,4.36
2023-04-10T00:48:30.527Z,4.37
2023-04-10T00:50:58.822Z,4.27
2023-04-10T00:53:28.385Z,4.21
2023-04-10T00:55:57.522Z,4.24
2023-04-10T00:58:26.796Z,4.19
2023-04-10T01:00:54.912Z,4.16
2023-04-10T01:03:24.000Z,4.07
2023-04-10T01:06:01.953Z,4.07
2023-04-10T01:08:40.636Z,4.03
2023-04-10T01:11:14.572Z,3.93
2023-04-10T01:13:48.490Z,3.91
2023-04-10T01:16:20.715Z,3.90
2023-04-10T01:18:54.995Z,3.86
2023-04-10T01:21:24.717Z,3.86
2023-04-10T01:24:13.929Z,3.80
2023-04-10T01:26:57.484Z,3.81
2023-04-10T01:29:30.459Z,3.81
2023-04-10T01:32:04.627Z,3.76
2023-04-10T01:34:37.672Z,3.73
2023-04-10T01:37:07.763Z,3.71
2023-04-10T01:39:38.933Z,3.69
2023-04-10T01:42:08.402Z,3.62
2023-04-10T01:44:47.349Z,3.69
2023-04-10T01:47:17.883Z,3.76
2023-04-10T01:49:48.692Z,3.68
2023-04-10T01:52:18.360Z,3.61
2023-04-10T01:54:52.752Z,3.52
2023-04-10T01:57:26.823Z,3.48
2023-04-10T01:59:59.396Z,3.39
2023-04-10T02:02:32.125Z,3.32
2023-04-10T02:05:00.219Z,3.34
2023-04-10T02:07:47.432Z,3.32
2023-04-10T02:10:23.366Z,3.24
2023-04-10T02:12:56.542Z,3.15
2023-04-10T02:15:28.529Z,3.16
2023-04-10T02:17:59.884Z,3.16
2023-04-10T02:20:28.137Z,3.13
2023-04-10T02:22:58.123Z,3.10
2023-04-10T02:25:26.114Z,3.05
2023-04-10T02:27:53.915Z,3.02
2023-04-10T02:30:22.114Z,2.99
2023-04-10T02:32:51.850Z,2.95
2023-04-10T02:35:20.257Z,2.99
2023-04-10T02:37:48.895Z,2.96
2023-04-10T02:40:17.091Z,2.94
2023-04-10T02:42:55.238Z,2.89
2023-04-10T02:45:23.077Z,2.86
2023-04-10T02:47:52.236Z,2.86
2023-04-10T02:50:21.491Z,2.76
2023-04-10T02:52:49.373Z,2.76
2023-04-10T02:55:17.192Z,2.73
2023-04-10T02:57:45.046Z,2.67
2023-04-10T03:00:14.110Z,2.69
2023-04-10T03:03:06.821Z,2.62
2023-04-10T03:05:42.946Z,2.62
2023-04-10T03:08:11.151Z,2.58
2023-04-10T03:10:38.861Z,2.61
2023-04-10T03:13:06.659Z,2.60
2023-04-10T03:15:34.554Z,2.58
2023-04-10T03:18:02.402Z,2.57
2023-04-10T03:20:32.197Z,2.58
2023-04-10T03:23:00.626Z,2.58
2023-04-10T03:25:28.728Z,2.67
2023-04-10T03:27:57.391Z,2.59
2023-04-10T03:30:25.526Z,2.65
2023-04-10T03:32:53.908Z,2.62
2023-04-10T03:35:21.963Z,2.63
2023-04-10T03:37:51.035Z,2.58
2023-04-10T03:40:18.885Z,2.57
2023-04-10T03:42:46.762Z,2.54
2023-04-10T03:45:15.384Z,2.54
2023-04-10T03:47:43.360Z,2.49
2023-04-10T03:50:14.065Z,2.47
2023-04-10T03:52:49.808Z,2.42
2023-04-10T03:55:21.331Z,2.43
2023-04-10T03:57:51.085Z,2.38
2023-04-10T04:00:21.972Z,2.36
2023-04-10T04:02:50.486Z,2.35
2023-04-10T04:05:42.834Z,2.33
2023-04-10T04:08:25.757Z,2.31
2023-04-10T04:11:24.742Z,2.29
2023-04-10T04:14:02.121Z,2.29
2023-04-10T04:16:44.578Z,2.28
2023-04-10T04:19:31.024Z,2.33
2023-04-10T04:22:13.058Z,2.45
2023-04-10T04:24:59.732Z,2.41
2023-04-10T04:27:51.658Z,2.42
2023-04-10T04:30:42.522Z,2.36
2023-04-10T04:33:36.313Z,2.40
2023-04-10T04:36:12.547Z,2.44
2023-04-10T04:38:43.408Z,2.44
2023-04-10T04:41:25.442Z,2.51
2023-04-10T04:44:01.122Z,2.46
2023-04-10T04:46:47.139Z,2.41
2023-04-10T04:49:33.951Z,2.34
2023-04-10T04:52:28.315Z,2.35
2023-04-10T04:55:06.779Z,2.34
2023-04-10T04:57:54.546Z,2.32
2023-04-10T05:00:56.869Z,2.28
2023-04-10T05:03:51.068Z,2.25
2023-04-10T05:06:24.904Z,2.20
2023-04-10T05:09:12.182Z,2.21
2023-04-10T05:12:03.883Z,2.23
2023-04-10T05:14:57.826Z,2.18
2023-04-10T05:17:39.972Z,2.21
2023-04-10T05:20:27.202Z,2.19
2023-04-10T05:23:11.485Z,2.15
2023-04-10T05:25:57.692Z,2.21
2023-04-10T05:28:57.618Z,2.21
2023-04-10T05:31:44.169Z,2.24
2023-04-10T05:34:20.586Z,2.27
2023-04-10T05:37:06.983Z,2.35
2023-04-10T05:39:46.114Z,2.42
2023-04-10T05:42:32.450Z,2.47
2023-04-10T05:45:12.246Z,2.47
2023-04-10T05:47:54.725Z,2.53
2023-04-10T05:50:37.525Z,2.59
2023-04-10T05:53:31.248Z,2.63
2023-04-10T05:56:15.281Z,2.65
2023-04-10T05:59:04.138Z,2.66
2023-04-10T06:02:01.711Z,2.76
2023-04-10T06:04:29.984Z,2.79
2023-04-10T06:07:02.261Z,2.86
2023-04-10T06:09:33.553Z,2.90
2023-04-10T06:12:01.797Z,2.96
2023-04-10T06:14:29.863Z,3.05
2023-04-10T06:16:58.990Z,3.06
2023-04-10T06:19:27.099Z,3.12
2023-04-10T06:21:55.277Z,3.18
2023-04-10T06:24:25.427Z,3.23
2023-04-10T06:26:53.295Z,3.32
2023-04-10T06:29:21.217Z,3.39
2023-04-10T06:31:49.730Z,3.46
2023-04-10T06:34:17.778Z,3.62
2023-04-10T06:36:56.133Z,3.70
2023-04-10T06:39:26.099Z,3.84
2023-04-10T06:41:54.099Z,3.95
2023-04-10T06:44:32.950Z,3.99
2023-04-10T06:47:00.853Z,4.15
2023-04-10T06:49:28.711Z,4.23
2023-04-10T06:51:56.469Z,4.35
2023-04-10T06:54:25.641Z,4.49
2023-04-10T06:56:58.617Z,4.59
2023-04-10T06:59:26.425Z,4.66
2023-04-10T07:01:54.198Z,4.77
2023-04-10T07:04:22.037Z,4.88
2023-04-10T07:06:50.147Z,5.03
2023-04-10T07:09:18.220Z,5.20
2023-04-10T07:11:47.500Z,5.35
2023-04-10T07:14:15.252Z,5.45
2023-04-10T07:16:43.115Z,5.64
2023-04-10T07:19:11.187Z,5.74
2023-04-10T07:21:38.961Z,5.81
2023-04-10T07:24:07.096Z,5.89
2023-04-10T07:26:34.963Z,6.02
2023-04-10T07:29:04.248Z,6.10
2023-04-10T07:31:32.175Z,6.23
2023-04-10T07:33:59.921Z,6.45
2023-04-10T07:36:27.988Z,6.54
2023-04-10T07:38:56.533Z,6.61
2023-04-10T07:41:24.733Z,6.75
2023-04-10T07:43:52.416Z,6.92
2023-04-10T07:46:21.666Z,7.12
2023-04-10T07:48:49.553Z,7.28
2023-04-10T07:51:17.399Z,7.34
2023-04-10T07:53:45.169Z,7.59
2023-04-10T07:56:17.176Z,7.67
2023-04-10T07:58:45.071Z,7.79
2023-04-10T08:01:13.115Z,7.92
2023-04-10T08:03:44.361Z,8.12
2023-04-10T08:06:12.994Z,8.26
2023-04-10T08:08:42.946Z,8.32
2023-04-10T08:11:25.181Z,8.48
2023-04-10T08:13:53.255Z,8.57
2023-04-10T08:16:24.627Z,8.67
2023-04-10T08:18:54.169Z,8.80
2023-04-10T08:21:23.125Z,8.85
2023-04-10T08:23:51.742Z,9.01
2023-04-10T08:26:20.031Z,9.06
2023-04-10T08:28:50.066Z,9.14
2023-04-10T08:31:18.257Z,9.20
2023-04-10T08:33:46.237Z,9.30
2023-04-10T08:36:18.361Z,9.40
2023-04-10T08:38:49.000Z,9.44
2023-04-10T08:41:18.230Z,9.54
2023-04-10T08:43:46.711Z,9.55
2023-04-10T08:46:15.556Z,9.64
2023-04-10T08:48:48.670Z,9.73
2023-04-10T08:51:26.290Z,9.87
2023-04-10T08:54:06.385Z,9.93
2023-04-10T08:56:35.928Z,10.02
2023-04-10T08:59:04.471Z,10.10
2023-04-10T09:01:32.385Z,10.18
2023-04-10T09:04:01.033Z,10.14
2023-04-10T09:06:32.061Z,10.20
2023-04-10T09:12:01.407Z,10.39
2023-04-10T09:14:31.354Z,10.45
2023-04-10T09:17:14.552Z,10.62
2023-04-10T09:19:42.598Z,10.69
2023-04-10T09:22:12.021Z,10.70
2023-04-10T09:24:41.959Z,10.85
2023-04-10T09:27:10.447Z,10.99
2023-04-10T09:29:43.981Z,11.03
2023-04-10T09:32:12.374Z,11.13
2023-04-10T09:35:05.760Z,11.20
2023-04-10T09:37:35.617Z,11.28
2023-04-10T09:40:04.141Z,11.34
2023-04-10T09:42:33.612Z,11.37
2023-04-10T09:45:02.357Z,11.46
2023-04-10T09:47:30.891Z,11.53
2023-04-10T09:50:00.717Z,11.64
2023-04-10T09:52:32.331Z,11.68
2023-04-10T09:55:04.121Z,11.67
2023-04-10T09:57:34.215Z,11.77
2023-04-10T10:00:04.169Z,11.88
2023-04-10T10:02:39.827Z,11.94
2023-04-10T10:05:09.109Z,12.03
2023-04-10T10:07:37.701Z,12.08
2023-04-10T10:10:08.970Z,12.16
2023-04-10T10:12:44.549Z,12.20
2023-04-10T10:15:17.764Z,12.24
2023-04-10T10:17:52.488Z,12.31
2023-04-10T10:20:23.492Z,12.41
2023-04-10T10:22:51.784Z,12.49
2023-04-10T10:25:21.315Z,12.59
2023-04-10T10:27:52.426Z,12.66
2023-04-10T10:32:53.785Z,12.78
2023-04-10T10:35:23.040Z,12.91
2023-04-10T10:37:52.456Z,13.04
2023-04-10T10:40:29.965Z,13.10
2023-04-10T10:43:22.909Z,13.01
2023-04-10T10:45:58.029Z,13.16
2023-04-10T10:48:26.073Z,13.22
2023-04-10T10:50:57.424Z,13.30
2023-04-10T10:53:36.275Z,13.38
2023-04-10T10:56:37.078Z,13.28
2023-04-10T10:59:05.282Z,13.28
2023-04-10T11:01:33.450Z,13.44
2023-04-10T11:04:02.332Z,13.35
2023-04-10T11:06:53.108Z,13.49
2023-04-10T11:09:49.414Z,13.51
2023-04-10T11:12:21.408Z,13.52
2023-04-10T11:14:59.445Z,13.54
2023-04-10T11:17:49.794Z,13.47
2023-04-10T11:20:18.321Z,13.59
2023-04-10T11:23:08.571Z,13.77
2023-04-10T11:25:51.451Z,13.71
2023-04-10T11:28:47.781Z,13.61
2023-04-10T11:31:18.643Z,13.61
2023-04-10T11:33:47.120Z,13.63
2023-04-10T11:36:17.540Z,13.74
2023-04-10T11:39:05.735Z,13.81
2023-04-10T11:41:35.676Z,13.87
2023-04-10T11:44:07.953Z,13.96
2023-04-10T11:46:38.347Z,14.06
2023-04-10T11:49:07.969Z,13.98
2023-04-10T11:51:36.336Z,14.08
2023-04-10T11:54:08.984Z,13.96
2023-04-10T11:56:37.865Z,13.89
2023-04-10T11:59:10.555Z,14.09
2023-04-10T12:01:41.105Z,14.28
2023-04-10T12:04:16.439Z,14.25
2023-04-10T12:06:46.119Z,14.25
2023-04-10T12:09:15.742Z,14.34
2023-04-10T12:11:51.472Z,14.48
2023-04-10T12:14:21.614Z,14.53
2023-04-10T12:16:50.203Z,14.61
2023-04-10T12:19:18.994Z,14.68
2023-04-10T12:21:47.072Z,14.73
2023-04-10T12:24:34.967Z,14.69
2023-04-10T12:27:02.929Z,14.69
2023-04-10T12:29:32.267Z,14.77
2023-04-10T12:32:08.942Z,14.85
2023-04-10T12:34:38.550Z,14.85
2023-04-10T12:37:07.056Z,15.01
2023-04-10T12:39:34.918Z,15.10
2023-04-10T12:42:13.502Z,15.12
2023-04-10T12:44:56.868Z,15.11
2023-04-10T12:47:25.909Z,15.12
2023-04-10T12:50:06.481Z,15.23
2023-04-10T12:52:35.871Z,15.22
2023-04-10T12:55:14.661Z,15.22
2023-04-10T12:57:43.608Z,15.26
2023-04-10T13:00:16.145Z,15.25
2023-04-10T13:02:44.790Z,15.38
2023-04-10T13:05:13.516Z,15.48
2023-04-10T13:07:44.501Z,15.55
2023-04-10T13:10:12.465Z,15.58
2023-04-10T13:12:42.068Z,15.60
2023-04-10T13:15:11.504Z,15.59
2023-04-10T13:17:41.857Z,15.58
2023-04-10T13:20:12.283Z,15.75
2023-04-10T13:22:40.297Z,15.72
2023-04-10T13:25:10.283Z,15.69
2023-04-10T13:27:38.084Z,15.79
2023-04-10T13:30:07.113Z,15.82
2023-04-10T13:32:35.223Z,15.86
2023-04-10T13:35:04.941Z,15.93
2023-04-10T13:37:32.898Z,15.88
2023-04-10T13:40:00.771Z,15.93
2023-04-10T13:42:28.885Z,15.90
2023-04-10T13:44:56.872Z,15.92
2023-04-10T13:47:24.759Z,16.01
2023-04-10T13:49:52.632Z,15.93
2023-04-10T13:52:21.989Z,15.88
2023-04-10T13:54:49.879Z,15.81
2023-04-10T13:57:17.780Z,15.86
2023-04-10T13:59:45.726Z,15.92
2023-04-10T14:02:13.793Z,15.91
2023-04-10T14:04:42.692Z,15.96
2023-04-10T14:07:11.849Z,15.99
2023-04-10T14:09:41.184Z,15.95
2023-04-10T14:12:09.101Z,16.00
2023-04-10T14:14:37.860Z,16.06
2023-04-10T14:17:06.379Z,16.05
2023-04-10T14:19:36.152Z,16.08
2023-04-10T14:22:04.303Z,16.11
2023-04-10T14:24:32.169Z,16.14
2023-04-10T14:27:01.906Z,16.10
2023-04-10T14:29:37.376Z,16.10
2023-04-10T14:32:07.388Z,16.03
2023-04-10T14:34:35.310Z,16.09
2023-04-10T14:37:03.514Z,16.11
2023-04-10T14:39:31.489Z,16.12
2023-04-10T14:41:59.326Z,16.12
2023-04-10T14:44:28.578Z,16.16
2023-04-10T14:46:56.562Z,16.23
2023-04-10T14:49:24.468Z,16.22
2023-04-10T14:51:52.763Z,16.20
2023-04-10T14:54:21.850Z,16.19
2023-04-10T14:56:50.401Z,16.19
2023-04-10T14:59:18.873Z,16.18
2023-04-10T15:01:48.363Z,16.16
2023-04-10T15:04:16.542Z,16.15
2023-04-10T15:06:44.405Z,16.14
2023-04-10T15:09:12.473Z,16.13
2023-04-10T15:11:40.406Z,16.12
2023-04-10T15:14:08.756Z,16.15
2023-04-10T15:16:36.684Z,16.14
2023-04-10T15:19:06.071Z,16.12
2023-04-10T15:21:34.299Z,16.06
2023-04-10T15:24:02.275Z,16.08
2023-04-10T15:26:30.217Z,16.05
2023-04-10T15:28:58.626Z,16.03
2023-04-10T15:31:26.673Z,16.05
2023-04-10T15:33:54.856Z,15.99
2023-04-10T15:36:24.301Z,15.95
2023-04-10T15:38:52.218Z,15.96
2023-04-10T15:41:20.616Z,15.93
2023-04-10T15:43:49.578Z,15.88
2023-04-10T15:46:19.139Z,15.88
2023-04-10T15:48:47.353Z,15.83
2023-04-10T15:51:15.611Z,15.81
2023-04-10T15:53:45.186Z,15.74
2023-04-10T15:56:16.014Z,15.73
2023-04-10T15:58:43.912Z,15.69
2023-04-10T16:01:12.115Z,15.67
2023-04-10T16:03:40.544Z,15.63
2023-04-10T16:06:09.636Z,15.59
2023-04-10T16:08:37.768Z,15.53
2023-04-10T16:11:07.712Z,15.51
2023-04-10T16:13:35.650Z,15.49
2023-04-10T16:16:04.590Z,15.46
2023-04-10T16:18:32.601Z,15.43
2023-04-10T16:21:00.864Z,15.40
2023-04-10T16:23:28.789Z,15.35
2023-04-10T16:25:57.234Z,15.33
2023-04-10T16:28:28.168Z,15.29
2023-04-10T16:30:56.835Z,15.27
2023-04-10T16:33:24.941Z,15.25
2023-04-10T16:35:53.831Z,15.23
2023-04-10T16:38:21.733Z,15.20
2023-04-10T16:40:49.609Z,15.18
2023-04-10T16:43:17.654Z,15.14
2023-04-10T16:45:46.916Z,15.12
2023-04-10T16:48:14.709Z,15.08
2023-04-10T16:50:42.631Z,15.05
2023-04-10T16:53:10.570Z,14.99
2023-04-10T16:55:38.468Z,14.94
2023-04-10T16:58:06.554Z,14.93
2023-04-10T17:00:36.784Z,14.87
2023-04-10T17:03:06.906Z,14.82
2023-04-10T17:05:36.892Z,14.78
2023-04-10T17:08:05.314Z,14.77
2023-04-10T17:10:33.474Z,14.71
2023-04-10T17:13:06.794Z,14.66
2023-04-10T17:15:34.803Z,14.62
2023-04-10T17:18:02.904Z,14.55
2023-04-10T17:20:36.702Z,14.49
2023-04-10T17:23:06.743Z,14.44
2023-04-10T17:25:34.857Z,14.41
2023-04-10T17:28:02.770Z,14.34
2023-04-10T17:30:30.802Z,14.31
2023-04-10T17:33:00.010Z,14.26
2023-04-10T17:35:27.920Z,14.25
2023-04-10T17:37:57.309Z,14.16
2023-04-10T17:40:25.138Z,14.13
2023-04-10T17:42:53.248Z,14.08
2023-04-10T17:45:22.150Z,14.05
2023-04-10T17:47:50.143Z,14.00
2023-04-10T17:50:18.351Z,13.96
2023-04-10T17:52:46.483Z,13.92
2023-04-10T17:55:21.286Z,13.87
2023-04-10T17:57:49.524Z,13.83
2023-04-10T18:00:20.538Z,13.77
2023-04-10T18:02:49.059Z,13.73
2023-04-10T18:05:18.961Z,13.70
2023-04-10T18:07:47.327Z,13.67
2023-04-10T18:10:16.750Z,13.64
2023-04-10T18:12:44.818Z,13.62
2023-04-10T18:15:14.322Z,13.61
2023-04-10T18:17:43.914Z,13.57
2023-04-10T18:20:12.311Z,13.56
2023-04-10T18:22:40.284Z,13.55
2023-04-10T18:25:09.639Z,13.52
2023-04-10T18:27:47.917Z,13.53
2023-04-10T18:30:20.192Z,13.47
2023-04-10T18:32:51.881Z,13.44
2023-04-10T18:35:20.143Z,13.42
2023-04-10T18:37:47.976Z,13.43
2023-04-10T18:40:16.892Z,13.42
2023-04-10T18:42:46.586Z,13.37
2023-04-10T18:45:14.788Z,13.34
2023-04-10T18:47:42.853Z,13.30
2023-04-10T18:50:11.677Z,13.25
2023-04-10T18:52:39.702Z,13.26
2023-04-10T18:55:08.401Z,13.23
2023-04-10T18:57:36.294Z,13.21
2023-04-10T19:00:08.154Z,13.17
2023-04-10T19:02:36.247Z,13.16
2023-04-10T19:05:04.368Z,13.14
2023-04-10T19:07:33.228Z,13.09
2023-04-10T19:10:01.186Z,13.07
2023-04-10T19:12:29.149Z,13.04
2023-04-10T19:14:57.056Z,13.03
2023-04-10T19:17:26.382Z,13.02
2023-04-10T19:19:55.482Z,12.97
2023-04-10T19:22:23.539Z,12.96
2023-04-10T19:24:51.576Z,12.96
2023-04-10T19:27:19.455Z,12.95
2023-04-10T19:29:47.409Z,12.92
2023-04-10T19:32:15.336Z,12.93
2023-04-10T19:34:51.034Z,12.93
2023-04-10T19:37:20.975Z,12.92
2023-04-10T19:39:48.986Z,12.88
2023-04-10T19:42:17.120Z,12.87
2023-04-10T19:44:45.071Z,12.87
2023-04-10T19:47:12.900Z,12.85
2023-04-10T19:49:40.805Z,12.84
2023-04-10T19:52:10.402Z,12.81
2023-04-10T19:54:38.413Z,12.80
2023-04-10T19:57:06.454Z,12.77
2023-04-10T19:59:36.302Z,12.76
2023-04-10T20:02:04.417Z,12.75
2023-04-10T20:04:32.417Z,12.74
2023-04-10T20:07:00.967Z,12.74
2023-04-10T20:09:30.383Z,12.73
2023-04-10T20:11:58.228Z,12.72
2023-04-10T20:14:26.316Z,12.69
2023-04-10T20:16:54.212Z,12.67
2023-04-10T20:19:22.158Z,12.67
2023-04-10T20:21:50.047Z,12.65
2023-04-10T20:24:17.914Z,12.65
2023-04-10T20:26:47.188Z,12.63
2023-04-10T20:29:15.126Z,12.61
2023-04-10T20:31:43.129Z,12.61
2023-04-10T20:34:11.117Z,12.59
2023-04-10T20:36:40.374Z,12.57
2023-04-10T20:39:08.378Z,12.56
2023-04-10T20:41:36.507Z,12.54
2023-04-10T20:44:06.905Z,12.54
2023-04-10T20:46:35.075Z,12.56
2023-04-10T20:49:02.988Z,12.55
2023-04-10T20:51:31.523Z,12.54
2023-04-10T20:53:59.412Z,12.51
2023-04-10T20:56:36.702Z,12.50
2023-04-10T20:59:12.374Z,12.50
2023-04-10T21:01:40.526Z,12.50
2023-04-10T21:04:08.580Z,12.50
2023-04-10T21:06:36.524Z,12.48
2023-04-10T21:09:04.631Z,12.47
2023-04-10T21:11:32.986Z,12.43
2023-04-10T21:14:00.933Z,12.42
2023-04-10T21:16:31.461Z,12.41
2023-04-10T21:18:59.362Z,12.40
2023-04-10T21:21:28.078Z,12.38
2023-04-10T21:23:56.091Z,12.37
2023-04-10T21:26:23.945Z,12.37
2023-04-10T21:28:51.905Z,12.36
2023-04-10T21:31:19.792Z,12.33
2023-04-10T21:33:49.544Z,12.31
2023-04-10T21:36:17.699Z,12.29
2023-04-10T21:38:45.652Z,12.28
2023-04-10T21:41:13.649Z,12.27
2023-04-10T21:43:43.093Z,12.23
2023-04-10T21:46:11.276Z,12.22
2023-04-10T21:48:39.670Z,12.22
2023-04-10T21:51:09.207Z,12.20
2023-04-10T21:53:37.164Z,12.20
2023-04-10T21:56:05.642Z,12.19
2023-04-10T21:58:33.950Z,12.17
2023-04-10T22:01:02.311Z,12.16
2023-04-10T22:03:30.981Z,12.14
2023-04-10T22:05:58.990Z,12.12
2023-04-10T22:08:28.326Z,12.12
2023-04-10T22:10:56.352Z,12.08
2023-04-10T22:13:30.741Z,12.05
2023-04-10T22:15:59.267Z,12.07
2023-04-10T22:18:27.188Z,12.05
2023-04-10T22:20:55.221Z,12.04
2023-04-10T22:23:23.255Z,12.01
2023-04-10T22:25:52.506Z,11.99
2023-04-10T22:28:20.526Z,11.99
2023-04-10T22:30:48.484Z,11.97
2023-04-10T22:33:16.470Z,11.94
2023-04-10T22:35:44.884Z,11.96
2023-04-10T22:38:13.253Z,11.94
2023-04-10T22:40:41.176Z,11.93
2023-04-10T22:43:11.017Z,11.91
2023-04-10T22:45:40.816Z,11.91
2023-04-10T22:48:08.885Z,11.91
2023-04-10T22:50:37.460Z,11.90
2023-04-10T22:53:05.649Z,11.89
2023-04-10T22:55:34.824Z,11.89
2023-04-10T22:58:02.669Z,11.87
2023-04-10T23:00:34.036Z,11.85
2023-04-10T23:03:02.222Z,11.82
2023-04-10T23:05:30.407Z,11.84
2023-04-10T23:07:59.427Z,11.83
2023-04-10T23:10:27.398Z,11.84
2023-04-10T23:12:55.348Z,11.84
2023-04-10T23:15:23.245Z,11.82
2023-04-10T23:17:52.779Z,11.81
2023-04-10T23:20:20.943Z,11.78
2023-04-10T23:22:48.897Z,11.77
2023-04-10T23:25:16.739Z,11.79
2023-04-10T23:27:44.611Z,11.83
2023-04-10T23:30:12.800Z,11.90
2023-04-10T23:32:40.803Z,11.90
2023-04-10T23:35:10.811Z,11.94
2023-04-10T23:37:38.702Z,11.99
2023-04-10T23:40:07.866Z,12.08
2023-04-10T23:42:35.751Z,12.09
2023-04-10T23:45:03.707Z,12.11
2023-04-10T23:47:31.594Z,12.10
2023-04-10T23:49:59.539Z,12.09
2023-04-10T23:52:29.303Z,12.08
2023-04-10T23:54:57.301Z,12.10
2023-04-10T23:57:27.782Z,12.10
2023-04-10T23:59:55.643Z,12.11
